Time;durP1;ratioP1;P1;durP2;ratioP2;P2;SDS_P1;SDS_P2;PMS_P1;PMS_P2;Temp;Humidity;BMP_temperature;BMP_pressure;BME280_temperature;BME280_humidity;BME280_pressure;Samples;Min_cycle;Max_cycle;Signal;HPM_P1;HPM_P2
2021/12/07 00:00:34;;;;;;;4.93;2.87;;;3.00;99.90;;;;;;5078060;28;20169;-70
2021/12/07 00:03:00;;;;;;;2.03;1.90;;;3.00;99.90;;;;;;5067832;28;20212;-69
2021/12/07 00:05:26;;;;;;;3.33;3.03;;;3.10;99.90;;;;;;5068026;28;20168;-70
2021/12/07 00:07:52;;;;;;;2.47;2.37;;;3.10;99.90;;;;;;5068244;28;20193;-68
2021/12/07 00:10:17;;;;;;;2.97;2.43;;;3.20;99.90;;;;;;5087879;28;20168;-70
2021/12/07 00:12:46;;;;;;;3.60;3.00;;;3.20;99.90;;;;;;5069410;28;20655;-68
2021/12/07 00:15:17;;;;;;;7.85;2.20;;;3.20;99.90;;;;;;5087837;28;20273;-71
2021/12/07 00:17:43;;;;;;;2.00;1.85;;;3.20;99.90;;;;;;5086548;28;20167;-68
2021/12/07 00:20:15;;;;;;;2.05;1.92;;;3.30;99.90;;;;;;5067830;28;20198;-69
2021/12/07 00:22:42;;;;;;;2.67;2.15;;;3.30;99.90;;;;;;5078442;28;20169;-70
2021/12/07 00:25:09;;;;;;;2.92;2.33;;;3.30;99.90;;;;;;5070013;28;20392;-69
2021/12/07 00:27:35;;;;;;;2.65;2.40;;;3.30;99.90;;;;;;5070744;28;20176;-70
2021/12/07 00:30:01;;;;;;;2.27;2.00;;;3.40;99.90;;;;;;5067491;28;20197;-68
2021/12/07 00:32:32;;;;;;;2.40;2.20;;;3.40;99.90;;;;;;5067461;28;20392;-70
2021/12/07 00:37:26;;;;;;;3.20;2.45;;;3.40;99.90;;;;;;5069993;28;20161;-69
2021/12/07 00:39:54;;;;;;;3.20;2.83;;;3.40;99.90;;;;;;5067331;28;20176;-70
2021/12/07 00:42:20;;;;;;;1.80;1.67;;;3.50;99.90;;;;;;5067294;28;20228;-69
2021/12/07 00:44:46;;;;;;;2.15;1.95;;;3.50;99.90;;;;;;5067249;28;20286;-70
2021/12/07 00:47:12;;;;;;;2.03;1.93;;;3.50;99.90;;;;;;5074640;28;20165;-69
2021/12/07 00:49:37;;;;;;;2.07;1.97;;;3.50;99.90;;;;;;5102837;27;20208;-70
2021/12/07 00:52:04;;;;;;;2.70;2.50;;;3.50;99.90;;;;;;5086921;27;20209;-70
2021/12/07 00:54:30;;;;;;;2.25;2.05;;;3.50;99.90;;;;;;5067058;28;20193;-70
2021/12/07 00:56:56;;;;;;;3.95;2.90;;;3.50;99.90;;;;;;5075960;28;20211;-70
2021/12/07 00:59:22;;;;;;;3.43;2.53;;;3.60;99.90;;;;;;5087199;28;20276;-69
2021/12/07 01:01:48;;;;;;;4.20;2.58;;;3.50;99.90;;;;;;5087044;28;20387;-70
2021/12/07 01:04:14;;;;;;;3.07;2.20;;;3.50;99.90;;;;;;5086873;28;20250;-71
2021/12/07 01:07:02;;;;;;;2.40;2.20;;;3.40;99.90;;;;;;5061899;28;20431;-67
2021/12/07 01:09:34;;;;;;;3.33;3.00;;;3.40;99.90;;;;;;5066190;28;20220;-68
2021/12/07 01:25:47;;;;;;;1.13;1.10;;;3.00;99.90;;;;;;5084696;28;20416;-69
2021/12/07 01:28:31;;;;;;;2.72;1.83;;;3.00;99.90;;;;;;5088350;28;20200;-69
2021/12/07 01:46:41;;;;;;;2.40;2.20;;;3.10;99.90;;;;;;5070904;28;20256;-71
2021/12/07 01:52:24;;;;;;;1.58;1.48;;;3.10;99.90;;;;;;5070598;28;20169;-70
2021/12/07 02:00:24;;;;;;;3.42;1.08;;;3.30;99.90;;;;;;5093062;28;20256;-69
2021/12/07 02:02:50;;;;;;;1.63;1.55;;;3.30;99.90;;;;;;5096340;28;20176;-71
2021/12/07 02:05:16;;;;;;;1.23;1.13;;;3.40;99.90;;;;;;5096792;27;20323;-69
2021/12/07 02:07:42;;;;;;;1.05;1.05;;;3.40;99.90;;;;;;5094678;28;20192;-69
2021/12/07 02:10:14;;;;;;;1.20;1.10;;;3.50;99.90;;;;;;5098618;27;20253;-69
2021/12/07 02:12:45;;;;;;;2.78;2.25;;;3.50;99.90;;;;;;5113262;27;20171;-69
2021/12/07 02:15:23;;;;;;;1.70;1.60;;;3.60;99.90;;;;;;5074136;28;20173;-70
2021/12/07 02:17:51;;;;;;;1.30;1.25;;;3.50;99.90;;;;;;5070029;28;20175;-69
2021/12/07 02:20:18;;;;;;;1.80;1.70;;;3.50;99.90;;;;;;5070073;28;20165;-70
2021/12/07 02:22:45;;;;;;;1.20;1.20;;;3.50;99.90;;;;;;5070027;28;20181;-69
2021/12/07 02:25:13;;;;;;;1.90;1.80;;;3.50;99.90;;;;;;5052298;28;20261;-68
2021/12/07 02:27:39;;;;;;;1.83;1.52;;;3.40;99.90;;;;;;5069778;28;20303;-70
2021/12/07 02:30:09;;;;;;;1.65;1.55;;;3.40;99.90;;;;;;5069616;28;20185;-69
2021/12/07 02:32:35;;;;;;;1.85;1.75;;;3.30;99.90;;;;;;5069689;28;20245;-69
2021/12/07 02:35:01;;;;;;;1.63;1.30;;;3.30;99.90;;;;;;5073677;28;20180;-71
2021/12/07 02:37:30;;;;;;;2.37;1.87;;;3.40;99.90;;;;;;5088898;28;20184;-70
2021/12/07 02:39:57;;;;;;;1.48;1.40;;;3.30;99.90;;;;;;5079324;28;20166;-70
2021/12/07 02:42:23;;;;;;;3.25;2.25;;;3.30;99.90;;;;;;5069644;28;20236;-70
2021/12/07 02:44:49;;;;;;;1.67;1.55;;;3.40;99.90;;;;;;5069521;28;20424;-69
2021/12/07 02:47:15;;;;;;;1.90;1.23;;;3.40;99.90;;;;;;5069202;28;20181;-70
2021/12/07 02:49:41;;;;;;;1.77;1.67;;;3.40;99.90;;;;;;5069397;28;20696;-70
2021/12/07 02:52:07;;;;;;;2.27;2.07;;;3.40;99.90;;;;;;5069214;28;20636;-70
2021/12/07 02:54:35;;;;;;;3.37;1.53;;;3.40;99.90;;;;;;5069221;28;20544;-70
2021/12/07 02:57:02;;;;;;;1.77;1.45;;;3.40;99.90;;;;;;5068908;28;20161;-69
2021/12/07 02:59:28;;;;;;;2.67;2.45;;;3.40;99.90;;;;;;5069044;28;20176;-70
2021/12/07 03:02:05;;;;;;;2.38;1.67;;;3.40;99.90;;;;;;5070108;28;20162;-69
2021/12/07 03:04:36;;;;;;;1.05;1.05;;;3.50;99.90;;;;;;5068739;28;20223;-69
2021/12/07 03:07:15;;;;;;;2.25;2.08;;;3.50;99.90;;;;;;5068773;28;20273;-70
2021/12/07 03:25:49;;;;;;;4.53;1.63;;;3.50;99.90;;;;;;5068790;28;20251;-68
2021/12/07 03:26:24;;;;;;;1.77;1.58;;;3.50;99.90;;;;;;5068225;28;20177;-69
2021/12/07 03:28:51;;;;;;;0.90;0.85;;;3.50;99.90;;;;;;5068321;28;20204;-69
2021/12/07 03:31:19;;;;;;;0.90;0.90;;;3.50;99.90;;;;;;5084149;28;20255;-68
2021/12/07 03:33:45;;;;;;;1.75;1.65;;;3.50;99.90;;;;;;5088442;28;20212;-69
2021/12/07 03:36:12;;;;;;;1.10;1.02;;;3.50;99.90;;;;;;5088287;28;20165;-69
2021/12/07 03:38:38;;;;;;;1.10;1.10;;;3.50;99.90;;;;;;5088199;28;20165;-70
2021/12/07 03:41:05;;;;;;;1.33;1.02;;;3.50;99.90;;;;;;5088361;28;20164;-70
2021/12/07 03:43:31;;;;;;;1.15;1.08;;;3.50;99.90;;;;;;5088236;28;20317;-70
2021/12/07 03:45:58;;;;;;;1.48;1.48;;;3.50;99.90;;;;;;5072792;28;20173;-68
2021/12/07 03:48:24;;;;;;;1.63;1.52;;;3.60;99.90;;;;;;5067873;28;20201;-68
2021/12/07 03:50:49;;;;;;;0.80;0.80;;;3.50;99.90;;;;;;5086062;28;20218;-68
2021/12/07 03:53:15;;;;;;;1.93;1.10;;;3.50;99.90;;;;;;5088016;28;20200;-69
2021/12/07 03:55:41;;;;;;;1.00;1.00;;;3.50;99.90;;;;;;5087936;28;20184;-69
2021/12/07 03:58:07;;;;;;;0.80;0.80;;;3.50;99.90;;;;;;5087685;28;20449;-68
2021/12/07 04:00:36;;;;;;;1.33;1.23;;;3.50;99.90;;;;;;5087671;28;20447;-68
2021/12/07 04:03:07;;;;;;;0.70;0.68;;;3.50;99.90;;;;;;5087829;28;20270;-68
2021/12/07 04:05:36;;;;;;;1.42;1.02;;;3.50;99.90;;;;;;5088059;28;20153;-68
2021/12/07 04:08:03;;;;;;;3.40;1.25;;;3.60;99.90;;;;;;5087536;28;20206;-69
2021/12/07 04:10:29;;;;;;;1.30;1.20;;;3.60;99.90;;;;;;5087854;28;20232;-69
2021/12/07 04:12:55;;;;;;;0.90;0.73;;;3.60;99.90;;;;;;5087801;28;20207;-69
2021/12/07 04:15:21;;;;;;;1.50;0.93;;;3.70;99.90;;;;;;5073222;28;20173;-71
2021/12/07 04:17:47;;;;;;;0.70;0.70;;;3.70;99.90;;;;;;5067328;28;20273;-69
2021/12/07 04:20:15;;;;;;;0.65;0.50;;;3.70;99.90;;;;;;5086860;28;20631;-68
2021/12/07 04:22:41;;;;;;;1.42;0.82;;;3.70;99.90;;;;;;5087560;28;20206;-69
2021/12/07 04:25:09;;;;;;;0.80;0.80;;;3.70;99.90;;;;;;5087588;28;20160;-68
2021/12/07 04:27:38;;;;;;;1.35;0.80;;;3.80;99.90;;;;;;5087063;28;20187;-69
2021/12/07 04:30:08;;;;;;;0.60;0.60;;;3.80;99.90;;;;;;5087335;28;20172;-69
2021/12/07 04:32:34;;;;;;;0.80;0.80;;;3.80;99.90;;;;;;5087564;28;20448;-70
2021/12/07 04:35:00;;;;;;;0.90;0.90;;;3.80;99.90;;;;;;5087370;28;20272;-70
2021/12/07 04:37:25;;;;;;;1.02;1.02;;;3.80;99.90;;;;;;5069547;28;20165;-70
2021/12/07 04:39:51;;;;;;;2.60;1.40;;;3.80;99.90;;;;;;5087418;28;20165;-70
2021/12/07 04:42:17;;;;;;;0.60;0.60;;;3.80;99.90;;;;;;5087356;28;20242;-71
2021/12/07 04:44:50;;;;;;;1.00;1.00;;;3.80;99.90;;;;;;5073596;28;20361;-70
2021/12/07 04:47:29;;;;;;;1.30;1.20;;;3.80;99.90;;;;;;5067069;28;20408;-70
2021/12/07 04:58:03;;;;;;;0.98;0.98;;;3.70;99.90;;;;;;5033351;28;20182;-69
2021/12/07 05:00:29;;;;;;;0.77;0.77;;;3.70;99.90;;;;;;5067068;28;20189;-70
2021/12/07 05:03:01;;;;;;;5.07;0.98;;;3.70;99.90;;;;;;5066317;28;20201;-69
2021/12/07 05:05:33;;;;;;;0.77;0.77;;;3.80;99.90;;;;;;5066934;28;20153;-70
2021/12/07 05:08:02;;;;;;;0.93;0.93;;;3.80;99.90;;;;;;5066620;28;20386;-68
2021/12/07 05:10:36;;;;;;;1.42;1.00;;;3.80;99.90;;;;;;5066817;28;20161;-70
2021/12/07 05:24:02;;;;;;;1.95;1.60;;;3.50;99.90;;;;;;5032961;28;20215;-71
2021/12/07 05:37:39;;;;;;;0.70;0.70;;;3.20;99.90;;;;;;5066902;28;20204;-70
2021/12/07 05:37:51;;;;;;;1.98;1.00;;;3.10;99.90;;;;;;5066288;28;20165;-71
2021/12/07 05:40:28;;;;;;;1.00;1.00;;;3.20;99.90;;;;;;5066653;28;20165;-71
2021/12/07 05:42:54;;;;;;;1.27;1.15;;;3.20;99.90;;;;;;5066619;28;20164;-69
2021/12/07 05:45:27;;;;;;;1.67;1.58;;;3.20;99.90;;;;;;5066626;28;20177;-70
2021/12/07 05:47:53;;;;;;;1.10;0.95;;;3.20;99.90;;;;;;5065966;28;20205;-68
2021/12/07 05:50:22;;;;;;;3.03;1.70;;;3.20;99.90;;;;;;5066278;28;20172;-72
2021/12/07 05:52:48;;;;;;;0.85;0.85;;;3.20;99.90;;;;;;5048831;28;20264;-69
2021/12/07 05:55:14;;;;;;;0.80;0.80;;;3.20;99.90;;;;;;5066155;28;20377;-71
2021/12/07 05:57:40;;;;;;;1.95;0.90;;;3.30;99.90;;;;;;5065967;28;20635;-70
2021/12/07 06:00:09;;;;;;;0.93;0.93;;;3.30;99.90;;;;;;5066139;28;20184;-70
2021/12/07 06:02:35;;;;;;;1.38;1.27;;;3.30;99.90;;;;;;5065945;28;20268;-70
2021/12/07 06:05:01;;;;;;;0.70;0.70;;;3.40;99.90;;;;;;5081838;28;20173;-70
2021/12/07 06:07:26;;;;;;;0.97;0.97;;;3.50;99.90;;;;;;5085858;28;20184;-70
2021/12/07 06:09:52;;;;;;;1.37;1.00;;;3.50;99.90;;;;;;5086126;28;20247;-70
2021/12/07 06:12:18;;;;;;;0.87;0.87;;;3.60;99.90;;;;;;5086176;28;20324;-70
2021/12/07 06:14:44;;;;;;;0.90;0.60;;;3.70;99.90;;;;;;5086965;28;20244;-71
2021/12/07 06:17:12;;;;;;;2.38;1.08;;;3.70;99.90;;;;;;5089605;28;20373;-71
2021/12/07 06:19:38;;;;;;;1.40;1.30;;;3.70;99.90;;;;;;5074972;28;20208;-71
2021/12/07 06:22:05;;;;;;;0.90;0.90;;;3.80;99.90;;;;;;5069641;28;20389;-69
2021/12/07 06:24:31;;;;;;;0.80;0.80;;;3.80;99.90;;;;;;5069561;28;20648;-68
2021/12/07 06:26:57;;;;;;;0.60;0.60;;;3.90;99.90;;;;;;5051947;28;20177;-69
2021/12/07 06:29:23;;;;;;;0.80;0.80;;;3.90;99.90;;;;;;5069459;28;20192;-70
2021/12/07 06:31:49;;;;;;;2.93;1.50;;;3.90;99.90;;;;;;5069475;28;20427;-69
2021/12/07 06:34:14;;;;;;;0.70;0.70;;;4.00;99.90;;;;;;5071407;28;20244;-70
2021/12/07 06:36:40;;;;;;;0.80;0.80;;;4.00;99.90;;;;;;5069088;28;20374;-70
2021/12/07 06:39:08;;;;;;;2.00;1.90;;;4.00;99.90;;;;;;5069301;28;20161;-69
2021/12/07 06:41:34;;;;;;;2.35;1.52;;;4.00;99.90;;;;;;5069340;28;20203;-69
2021/12/07 06:44:00;;;;;;;0.60;0.60;;;4.00;99.90;;;;;;5069123;28;20197;-70
2021/12/07 06:46:26;;;;;;;1.08;1.08;;;4.10;99.90;;;;;;5068964;28;20356;-69
2021/12/07 06:48:51;;;;;;;1.40;1.30;;;4.10;99.90;;;;;;5081635;28;20219;-69
2021/12/07 06:51:17;;;;;;;1.37;1.10;;;4.10;99.90;;;;;;5089224;28;20209;-69
2021/12/07 06:53:43;;;;;;;2.83;1.33;;;4.10;99.90;;;;;;5089185;28;20420;-70
2021/12/07 06:56:09;;;;;;;1.17;1.13;;;4.20;99.90;;;;;;5089160;28;20283;-73
2021/12/07 06:58:36;;;;;;;1.48;1.33;;;4.20;99.90;;;;;;5071247;28;20172;-69
2021/12/07 07:01:06;;;;;;;2.13;1.92;;;4.20;99.90;;;;;;5085166;28;20174;-70
2021/12/07 07:03:31;;;;;;;0.90;0.90;;;4.20;99.90;;;;;;5095571;27;20273;-70
2021/12/07 07:05:57;;;;;;;7.10;1.60;;;4.20;99.90;;;;;;5088510;28;20177;-70
2021/12/07 07:08:23;;;;;;;0.67;0.67;;;4.30;99.90;;;;;;5088190;28;20192;-70
2021/12/07 07:10:48;;;;;;;1.37;1.30;;;4.30;99.90;;;;;;5088273;27;20168;-69
2021/12/07 07:13:14;;;;;;;1.33;1.23;;;4.20;99.90;;;;;;5109020;27;20187;-68
2021/12/07 07:15:40;;;;;;;3.00;2.90;;;4.20;99.90;;;;;;5098542;27;20452;-70
2021/12/07 07:18:06;;;;;;;1.98;1.73;;;4.20;99.90;;;;;;5087945;28;20286;-69
2021/12/07 07:20:33;;;;;;;0.87;0.87;;;4.20;99.90;;;;;;5102642;27;20241;-70
2021/12/07 07:22:58;;;;;;;3.80;0.98;;;4.20;99.90;;;;;;5091020;27;20233;-69
2021/12/07 07:25:24;;;;;;;1.90;1.67;;;4.20;99.90;;;;;;5084478;27;20253;-68
2021/12/07 07:27:50;;;;;;;2.25;1.40;;;4.20;99.90;;;;;;5068223;28;20247;-70
2021/12/07 07:30:18;;;;;;;1.65;1.35;;;4.10;99.90;;;;;;5068589;28;20212;-67
2021/12/07 07:32:45;;;;;;;1.10;1.00;;;4.10;99.90;;;;;;5068588;28;20301;-68
2021/12/07 07:35:13;;;;;;;0.85;0.85;;;4.10;99.90;;;;;;5068047;28;20193;-68
2021/12/07 07:37:39;;;;;;;4.30;1.25;;;4.10;99.90;;;;;;5067631;28;20252;-69
2021/12/07 07:40:07;;;;;;;6.85;1.90;;;4.10;99.90;;;;;;5079436;28;20184;-70
2021/12/07 07:42:33;;;;;;;2.08;1.90;;;4.10;99.90;;;;;;5088337;28;20266;-68
2021/12/07 07:44:59;;;;;;;1.15;0.90;;;4.10;99.90;;;;;;5087710;27;20230;-69
2021/12/07 07:47:25;;;;;;;2.53;1.17;;;4.10;99.90;;;;;;5087906;28;20164;-69
2021/12/07 07:49:51;;;;;;;2.45;1.50;;;4.10;99.90;;;;;;5088116;28;20774;-69
2021/12/07 07:52:17;;;;;;;1.83;1.20;;;4.10;99.90;;;;;;5087735;28;20165;-68
2021/12/07 07:54:42;;;;;;;2.57;2.37;;;4.10;99.90;;;;;;5086411;28;20196;-70
2021/12/07 07:57:08;;;;;;;2.13;1.93;;;4.10;99.90;;;;;;5076091;28;20188;-68
2021/12/07 07:59:36;;;;;;;4.00;2.37;;;4.10;99.90;;;;;;5093433;27;20221;-67
2021/12/07 08:02:02;;;;;;;1.70;1.50;;;4.10;99.90;;;;;;5082446;27;20510;-66
2021/12/07 08:04:28;;;;;;;1.58;1.58;;;4.10;99.90;;;;;;5087718;28;20268;-66
2021/12/07 08:06:54;;;;;;;9.80;1.60;;;4.20;99.90;;;;;;5103184;27;20160;-67
2021/12/07 08:09:19;;;;;;;11.27;2.30;;;4.30;99.90;;;;;;5088210;27;20232;-66
2021/12/07 08:11:45;;;;;;;2.77;2.03;;;4.30;99.90;;;;;;5067826;28;20172;-66
2021/12/07 08:14:11;;;;;;;2.20;1.90;;;4.30;99.90;;;;;;5050083;28;20470;-67
2021/12/07 08:16:38;;;;;;;3.57;2.27;;;4.40;99.90;;;;;;5066943;28;20408;-67
2021/12/07 08:19:04;;;;;;;6.10;2.55;;;4.40;99.90;;;;;;5099035;27;20402;-66
2021/12/07 08:21:30;;;;;;;2.45;1.75;;;4.50;99.90;;;;;;5098620;27;20239;-65
2021/12/07 08:23:55;;;;;;;1.20;1.20;;;4.60;99.90;;;;;;5089787;27;20339;-68
2021/12/07 08:26:23;;;;;;;2.20;1.93;;;4.60;99.90;;;;;;5086051;28;20517;-68
2021/12/07 08:28:54;;;;;;;9.27;1.10;;;4.70;99.90;;;;;;5069512;28;20210;-68
2021/12/07 08:31:20;;;;;;;0.90;0.90;;;4.90;99.90;;;;;;5094635;27;20315;-67
2021/12/07 08:33:46;;;;;;;1.25;1.15;;;5.00;99.90;;;;;;5107539;27;20251;-67
2021/12/07 08:36:12;;;;;;;3.13;1.83;;;5.10;99.90;;;;;;5091619;27;20173;-65
2021/12/07 08:38:38;;;;;;;1.70;1.60;;;5.30;99.90;;;;;;5086300;28;20416;-64
2021/12/07 08:41:04;;;;;;;3.27;1.97;;;5.40;99.90;;;;;;5087405;28;20191;-64
2021/12/07 08:43:32;;;;;;;3.90;2.47;;;5.40;99.90;;;;;;5087284;28;20592;-65
2021/12/07 08:46:00;;;;;;;1.65;1.40;;;5.50;99.90;;;;;;5087328;28;20161;-63
2021/12/07 08:48:27;;;;;;;1.33;1.20;;;5.50;99.90;;;;;;5086547;28;20204;-64
2021/12/07 08:50:53;;;;;;;1.45;1.35;;;5.50;99.90;;;;;;5072469;28;20167;-63
2021/12/07 08:53:22;;;;;;;2.70;2.05;;;5.60;99.90;;;;;;5067008;28;20300;-66
2021/12/07 09:01:21;;;;;;;1.33;1.23;;;5.50;99.90;;;;;;5078462;27;20215;-66
2021/12/07 09:03:48;;;;;;;1.45;1.35;;;5.50;99.90;;;;;;5100529;27;20212;-65
2021/12/07 09:06:15;;;;;;;1.00;0.93;;;5.50;99.90;;;;;;5050039;28;20379;-65
2021/12/07 09:08:41;;;;;;;0.80;0.70;;;5.60;99.90;;;;;;5101220;27;20286;-66
2021/12/07 09:11:08;;;;;;;0.75;0.75;;;5.50;99.90;;;;;;5086598;28;20165;-65
2021/12/07 09:13:34;;;;;;;3.70;1.25;;;5.50;99.90;;;;;;5086806;28;20186;-65
2021/12/07 09:16:00;;;;;;;2.08;1.33;;;5.60;99.90;;;;;;5086874;28;20388;-65
2021/12/07 09:18:27;;;;;;;3.50;2.10;;;5.70;99.90;;;;;;5068846;28;20173;-65
2021/12/07 09:20:54;;;;;;;2.80;0.60;;;5.80;99.90;;;;;;5086038;28;20447;-64
2021/12/07 09:23:20;;;;;;;1.58;0.95;;;5.80;99.90;;;;;;5086533;28;20197;-64
2021/12/07 09:25:45;;;;;;;1.50;1.23;;;5.80;99.90;;;;;;5086789;28;20312;-64
2021/12/07 09:28:12;;;;;;;1.23;1.23;;;5.80;99.90;;;;;;5086392;28;20498;-66
2021/12/07 09:30:38;;;;;;;1.55;1.30;;;5.90;99.90;;;;;;5086706;28;20376;-64
2021/12/07 09:33:04;;;;;;;5.18;1.63;;;5.90;99.90;;;;;;5086646;28;20222;-65
2021/12/07 09:35:31;;;;;;;1.05;0.80;;;5.90;99.90;;;;;;5086488;28;20176;-65
2021/12/07 09:37:57;;;;;;;1.92;1.20;;;6.00;99.90;;;;;;5086447;28;20167;-64
2021/12/07 09:40:28;;;;;;;0.93;0.93;;;6.10;99.90;;;;;;5071623;28;20180;-63
2021/12/07 09:42:55;;;;;;;1.48;1.20;;;6.20;99.90;;;;;;5048920;28;20434;-63
2021/12/07 09:45:23;;;;;;;0.43;0.43;;;6.30;99.90;;;;;;5066612;28;20193;-63
2021/12/07 09:47:49;;;;;;;1.00;0.90;;;6.40;99.90;;;;;;5066157;28;20372;-63
2021/12/07 09:50:18;;;;;;;2.50;0.93;;;6.80;99.90;;;;;;5070178;28;20223;-63
2021/12/07 09:52:45;;;;;;;1.38;1.25;;;7.10;99.90;;;;;;5070309;28;20631;-64
2021/12/07 09:55:12;;;;;;;0.90;0.88;;;7.30;99.90;;;;;;5082783;28;20219;-65
2021/12/07 09:57:37;;;;;;;0.75;0.75;;;7.80;99.90;;;;;;5090220;28;20356;-64
2021/12/07 10:00:08;;;;;;;1.37;1.27;;;8.20;99.90;;;;;;5090302;28;20169;-66
2021/12/07 10:02:34;;;;;;;0.68;0.68;;;8.60;99.90;;;;;;5089329;28;20181;-65
2021/12/07 10:05:00;;;;;;;1.30;1.20;;;9.20;99.90;;;;;;5090313;28;20223;-65
2021/12/07 10:07:26;;;;;;;2.77;2.63;;;9.60;99.90;;;;;;5089993;28;20176;-65
2021/12/07 10:09:52;;;;;;;0.80;0.80;;;10.00;99.90;;;;;;5081128;28;20456;-64
2021/12/07 10:12:19;;;;;;;1.20;0.53;;;10.00;99.90;;;;;;5070077;28;20362;-63
2021/12/07 10:14:45;;;;;;;0.90;0.80;;;9.70;99.90;;;;;;5070382;28;20664;-65
2021/12/07 10:17:11;;;;;;;5.03;1.50;;;9.40;99.90;;;;;;5089917;28;20178;-65
2021/12/07 10:19:44;;;;;;;1.80;0.70;;;9.20;99.90;;;;;;5098866;27;20192;-64
2021/12/07 10:22:18;;;;;;;2.17;1.50;;;8.90;99.90;;;;;;5110230;27;20433;-64
2021/12/07 10:24:55;;;;;;;1.17;0.90;;;8.80;99.90;;;;;;5069850;28;20201;-63
2021/12/07 10:27:38;;;;;;;1.58;0.88;;;8.70;99.90;;;;;;5081711;27;20175;-72
2021/12/07 10:30:08;;;;;;;2.58;1.02;;;8.60;99.90;;;;;;5076752;28;20189;-70
2021/12/07 10:32:38;;;;;;;1.20;0.80;;;8.40;99.90;;;;;;5102885;27;20172;-68
2021/12/07 10:35:04;;;;;;;1.02;0.82;;;8.20;99.90;;;;;;5086065;28;20187;-70
2021/12/07 10:37:31;;;;;;;0.40;0.40;;;7.90;99.90;;;;;;5088603;28;20168;-68
2021/12/07 10:39:57;;;;;;;1.05;0.95;;;7.70;99.90;;;;;;5090821;28;20612;-70
2021/12/07 10:42:29;;;;;;;3.60;0.80;;;7.40;99.90;;;;;;5088913;27;20169;-72
2021/12/07 10:44:55;;;;;;;0.75;0.75;;;7.00;99.90;;;;;;5087996;28;20201;-72
2021/12/07 10:47:23;;;;;;;4.85;1.70;;;6.80;99.90;;;;;;5087198;28;20180;-70
2021/12/07 10:49:57;;;;;;;0.75;0.68;;;6.70;99.90;;;;;;5089928;27;20206;-71
2021/12/07 10:52:29;;;;;;;1.25;1.00;;;6.80;99.90;;;;;;5089432;28;20249;-70
2021/12/07 10:55:21;;;;;;;1.33;1.23;;;7.20;99.90;;;;;;5089006;28;20211;-71
2021/12/07 10:57:56;;;;;;;0.68;0.68;;;7.70;99.90;;;;;;5084759;28;20321;-69
2021/12/07 11:00:28;;;;;;;0.98;0.50;;;8.20;99.90;;;;;;5071677;28;20169;-70
2021/12/07 11:03:29;;;;;;;2.65;0.70;;;8.50;99.90;;;;;;5084750;28;20184;-72
2021/12/07 11:05:55;;;;;;;1.17;1.00;;;8.50;99.90;;;;;;5068261;28;20210;-71
2021/12/07 11:08:25;;;;;;;2.00;1.03;;;8.40;99.90;;;;;;5088551;28;20196;-72
2021/12/07 11:10:52;;;;;;;0.50;0.50;;;8.10;99.90;;;;;;5070583;28;20178;-69
2021/12/07 11:13:22;;;;;;;0.50;0.50;;;7.90;99.90;;;;;;5087802;28;20188;-67
2021/12/07 11:15:53;;;;;;;0.88;0.47;;;7.80;99.90;;;;;;5088792;28;20157;-68
2021/12/07 11:18:23;;;;;;;0.75;0.75;;;7.80;99.90;;;;;;5068566;28;20177;-68
2021/12/07 11:20:54;;;;;;;0.52;0.52;;;7.80;99.90;;;;;;5077774;28;20374;-73
2021/12/07 11:23:23;;;;;;;1.17;1.08;;;7.90;99.90;;;;;;5079187;28;20192;-74
2021/12/07 11:29:39;;;;;;;0.73;0.73;;;8.00;99.90;;;;;;5080498;28;20168;-75
2021/12/07 11:31:34;;;;;;;8.50;2.35;;;8.10;99.90;;;;;;5079298;28;20188;-72
2021/12/07 11:34:22;;;;;;;1.35;0.90;;;8.10;99.90;;;;;;5068256;28;20431;-74
2021/12/07 11:37:03;;;;;;;0.50;0.50;;;8.00;99.90;;;;;;5083282;28;20176;-75
2021/12/07 11:39:36;;;;;;;1.17;0.80;;;8.00;99.90;;;;;;5082037;28;20417;-71
2021/12/07 11:42:02;;;;;;;0.98;0.68;;;8.00;99.90;;;;;;5068276;28;20275;-75
2021/12/07 11:44:29;;;;;;;1.07;1.03;;;8.10;99.90;;;;;;5069179;28;20244;-72
2021/12/07 11:46:57;;;;;;;1.50;0.85;;;8.20;99.90;;;;;;5084459;28;20419;-72
2021/12/07 11:49:26;;;;;;;0.73;0.73;;;8.10;99.90;;;;;;5087034;28;20205;-74
2021/12/07 11:51:55;;;;;;;0.70;0.70;;;8.10;99.90;;;;;;5069742;28;20173;-73
2021/12/07 11:54:28;;;;;;;0.70;0.70;;;8.00;99.90;;;;;;5087470;28;20218;-74
2021/12/07 11:56:54;;;;;;;1.13;1.02;;;7.90;99.90;;;;;;5067791;28;20261;-72
2021/12/07 11:59:20;;;;;;;0.83;0.83;;;7.90;99.90;;;;;;5071955;28;20382;-73
2021/12/07 12:01:47;;;;;;;2.80;1.13;;;7.90;99.90;;;;;;5085810;28;20423;-72
2021/12/07 12:04:14;;;;;;;2.47;0.75;;;7.80;99.90;;;;;;5087867;28;20239;-75
2021/12/07 12:06:44;;;;;;;1.15;0.75;;;7.70;99.90;;;;;;5077630;28;20316;-69
2021/12/07 12:09:10;;;;;;;0.50;0.50;;;7.70;99.90;;;;;;5070891;28;20203;-65
2021/12/07 12:11:36;;;;;;;1.88;0.77;;;7.70;99.90;;;;;;5079202;28;20366;-67
2021/12/07 12:14:39;;;;;;;0.60;0.60;;;7.70;99.90;;;;;;5068730;28;20215;-65
2021/12/07 12:17:21;;;;;;;1.00;0.68;;;7.80;99.90;;;;;;5078108;28;20403;-62
2021/12/07 12:20:04;;;;;;;1.85;0.80;;;8.00;99.90;;;;;;5072129;28;20161;-66
2021/12/07 12:22:33;;;;;;;1.08;0.68;;;8.00;99.90;;;;;;5085362;28;20183;-67
2021/12/07 12:25:05;;;;;;;1.05;1.05;;;8.10;99.90;;;;;;5084132;28;20258;-69
2021/12/07 12:27:35;;;;;;;0.80;0.80;;;8.10;99.90;;;;;;5082324;28;20395;-70
2021/12/07 12:30:07;;;;;;;0.88;0.70;;;8.10;99.90;;;;;;5077142;28;20403;-65
2021/12/07 12:32:44;;;;;;;1.10;0.60;;;8.00;99.90;;;;;;5093701;27;20184;-65
2021/12/07 12:35:11;;;;;;;1.73;0.77;;;7.90;99.90;;;;;;5076361;28;20179;-62
2021/12/07 12:37:47;;;;;;;2.67;1.13;;;7.90;99.90;;;;;;5075739;28;20168;-64
2021/12/07 12:40:26;;;;;;;4.22;1.52;;;7.80;99.90;;;;;;5085380;28;20202;-63
2021/12/07 12:42:54;;;;;;;0.65;0.50;;;7.80;99.90;;;;;;5086807;28;20194;-62
2021/12/07 12:45:27;;;;;;;0.73;0.73;;;8.00;99.90;;;;;;5087106;28;20256;-64
2021/12/07 12:48:03;;;;;;;1.08;1.08;;;8.00;99.90;;;;;;5086949;28;20279;-63
2021/12/07 12:50:32;;;;;;;0.70;0.70;;;8.10;99.90;;;;;;5086932;28;20191;-65
2021/12/07 12:53:01;;;;;;;1.13;0.90;;;8.10;99.90;;;;;;5086595;28;20314;-65
2021/12/07 12:55:50;;;;;;;2.00;0.88;;;8.20;99.90;;;;;;5084266;28;20169;-65
2021/12/07 12:58:29;;;;;;;1.40;1.30;;;8.10;99.90;;;;;;5072806;28;20234;-67
2021/12/07 13:01:16;;;;;;;1.33;1.00;;;8.10;99.90;;;;;;5086773;28;20256;-65
2021/12/07 13:03:47;;;;;;;0.73;0.73;;;8.10;99.90;;;;;;5085650;28;20191;-65
2021/12/07 13:06:43;;;;;;;0.50;0.50;;;7.90;99.90;;;;;;5074916;28;20194;-68
2021/12/07 13:09:18;;;;;;;1.20;1.13;;;7.90;99.90;;;;;;5078938;28;20234;-65
2021/12/07 13:11:53;;;;;;;2.30;1.50;;;7.80;99.90;;;;;;5070232;28;20203;-67
2021/12/07 13:14:22;;;;;;;3.00;2.00;;;7.80;99.90;;;;;;5066743;28;20194;-66
2021/12/07 13:16:52;;;;;;;1.42;1.27;;;7.80;99.90;;;;;;5066494;28;20173;-65
2021/12/07 13:19:19;;;;;;;5.07;0.88;;;7.80;99.90;;;;;;5084599;28;20194;-61
2021/12/07 13:21:47;;;;;;;3.22;0.90;;;7.80;99.90;;;;;;5086825;28;20167;-61
2021/12/07 13:24:19;;;;;;;0.65;0.60;;;7.80;99.90;;;;;;5089758;27;20184;-63
2021/12/07 13:26:52;;;;;;;0.77;0.73;;;7.80;99.90;;;;;;5066415;28;20201;-69
2021/12/07 13:29:22;;;;;;;1.58;0.95;;;7.80;99.90;;;;;;5079184;28;20211;-70
2021/12/07 13:31:56;;;;;;;1.48;1.05;;;7.80;99.90;;;;;;5082710;28;20186;-70
2021/12/07 13:34:34;;;;;;;1.00;1.00;;;7.80;99.90;;;;;;5071739;28;20189;-72
2021/12/07 13:37:06;;;;;;;0.63;0.60;;;7.80;99.90;;;;;;5066210;28;20165;-69
2021/12/07 13:39:37;;;;;;;0.60;0.60;;;7.80;99.90;;;;;;5080510;28;20188;-70
2021/12/07 13:42:08;;;;;;;0.73;0.73;;;7.80;99.90;;;;;;5085644;28;20176;-64
2021/12/07 13:44:45;;;;;;;0.60;0.60;;;7.80;99.90;;;;;;5082245;28;20238;-64
2021/12/07 13:47:15;;;;;;;1.10;0.90;;;7.70;99.90;;;;;;5082093;28;20176;-64
2021/12/07 13:49:47;;;;;;;0.60;0.60;;;7.70;99.90;;;;;;5074791;28;20208;-63
2021/12/07 13:52:19;;;;;;;1.10;0.47;;;7.70;99.90;;;;;;5081006;28;20244;-64
2021/12/07 13:54:49;;;;;;;2.80;0.80;;;7.60;99.90;;;;;;5066851;28;20197;-63
2021/12/07 13:57:24;;;;;;;2.97;0.90;;;7.50;99.90;;;;;;5064335;28;20207;-63
2021/12/07 14:00:06;;;;;;;0.80;0.80;;;7.40;99.90;;;;;;5073915;28;20177;-64
2021/12/07 14:02:33;;;;;;;0.40;0.40;;;7.30;99.90;;;;;;5085418;28;20190;-63
2021/12/07 14:05:21;;;;;;;2.90;1.10;;;7.30;99.90;;;;;;5085368;28;20212;-63
2021/12/07 14:07:48;;;;;;;0.52;0.52;;;7.20;99.90;;;;;;5079016;28;20273;-64
2021/12/07 14:10:29;;;;;;;4.55;1.92;;;7.10;99.90;;;;;;5085097;28;20195;-62
2021/12/07 14:12:58;;;;;;;1.55;1.30;;;7.10;99.90;;;;;;5077971;28;20187;-62
2021/12/07 14:15:29;;;;;;;1.60;0.85;;;7.00;99.90;;;;;;5066121;28;20189;-62
2021/12/07 14:18:05;;;;;;;0.77;0.77;;;6.90;99.90;;;;;;5081343;28;20191;-62
2021/12/07 14:20:38;;;;;;;1.15;1.15;;;6.80;99.90;;;;;;5082430;28;20275;-64
2021/12/07 14:23:38;;;;;;;1.17;1.17;;;6.70;99.90;;;;;;5069184;28;20212;-63
2021/12/07 14:26:11;;;;;;;1.10;1.00;;;6.60;99.90;;;;;;5063734;28;20209;-65
2021/12/07 14:28:41;;;;;;;1.60;1.50;;;6.50;99.90;;;;;;5077232;28;20308;-64
2021/12/07 14:31:24;;;;;;;1.60;1.38;;;6.50;99.90;;;;;;5075233;28;20157;-65
2021/12/07 14:33:59;;;;;;;1.25;0.88;;;6.40;99.90;;;;;;5085584;28;20196;-64
2021/12/07 14:36:31;;;;;;;0.60;0.60;;;6.30;99.90;;;;;;5087790;28;20206;-63
2021/12/07 14:39:19;;;;;;;1.95;0.88;;;6.20;99.90;;;;;;5087216;28;20240;-62